Time;durP1;ratioP1;P1;durP2;ratioP2;P2;SDS_P1;SDS_P2;PMS_P1;PMS_P2;Temp;Humidity;BMP_temperature;BMP_pressure;BME280_temperature;BME280_humidity;BME280_pressure;Samples;Min_cycle;Max_cycle;Signal;HPM_P1;HPM_P2
2023/02/23 00:02:06;;;;;;;;;;;;;;;20.67;46.62;101202.63;7257578;19;154288;-56
2023/02/23 00:04:34;;;;;;;;;;;;;;;20.69;46.93;101211.56;7265111;19;154014;-56
2023/02/23 00:07:01;;;;;;;;;;;;;;;20.72;46.28;101208.13;7254379;19;153227;-56
2023/02/23 00:09:34;;;;;;;;;;;;;;;20.75;46.32;101211.19;7258524;19;153724;-56
2023/02/23 00:12:06;;;;;;;;;;;;;;;20.76;46.43;101212.81;7253409;19;154389;-56
2023/02/23 00:14:37;;;;;;;;;;;;;;;20.78;46.76;101219.00;7251808;19;152149;-55
2023/02/23 00:17:09;;;;;;;;;;;;;;;20.78;46.70;101220.97;7255719;19;154150;-55
2023/02/23 00:19:36;;;;;;;;;;;;;;;20.80;46.55;101219.50;7254849;19;154597;-56
2023/02/23 00:22:03;;;;;;;;;;;;;;;20.82;46.74;101228.47;7255142;19;154398;-56
2023/02/23 00:24:30;;;;;;;;;;;;;;;20.82;46.97;101234.09;7265237;19;153960;-56
2023/02/23 00:26:57;;;;;;;;;;;;;;;20.84;46.73;101226.22;7255292;19;154076;-56
2023/02/23 00:29:24;;;;;;;;;;;;;;;20.84;46.99;101225.38;7257615;19;152950;-56
2023/02/23 00:31:51;;;;;;;;;;;;;;;20.87;46.67;101227.56;7254446;19;154187;-56
2023/02/23 00:34:20;;;;;;;;;;;;;;;20.88;46.61;101222.78;7256521;19;152750;-56
2023/02/23 00:36:50;;;;;;;;;;;;;;;20.88;46.52;101228.41;7255870;19;153635;-56
2023/02/23 00:41:48;;;;;;;;;;;;;;;20.84;46.70;101214.97;7255952;19;153229;-56
2023/02/23 00:44:15;;;;;;;;;;;;;;;20.85;46.57;101219.44;7253326;19;153638;-56
2023/02/23 00:46:43;;;;;;;;;;;;;;;20.83;46.76;101218.91;7259121;19;154959;-56
2023/02/23 00:49:11;;;;;;;;;;;;;;;20.83;46.40;101224.53;7254325;19;153976;-56
2023/02/23 00:51:38;;;;;;;;;;;;;;;20.80;46.75;101224.31;7255850;19;155187;-57
2023/02/23 00:54:06;;;;;;;;;;;;;;;20.77;46.60;101222.09;7254355;19;152895;-56
2023/02/23 00:56:33;;;;;;;;;;;;;;;20.76;46.77;101212.00;7256969;19;153405;-56
2023/02/23 00:59:00;;;;;;;;;;;;;;;20.74;46.83;101222.72;7251609;19;154292;-56
2023/02/23 01:01:28;;;;;;;;;;;;;;;20.73;46.79;101221.03;7256389;19;153146;-56
2023/02/23 01:03:55;;;;;;;;;;;;;;;20.74;47.02;101220.75;7258128;19;153527;-56
2023/02/23 01:06:22;;;;;;;;;;;;;;;20.72;46.63;101220.19;7256447;19;153981;-56
2023/02/23 01:08:49;;;;;;;;;;;;;;;20.69;46.80;101225.59;7261274;19;154106;-56
2023/02/23 01:11:20;;;;;;;;;;;;;;;20.69;46.98;101229.22;7253911;19;155778;-56
2023/02/23 01:13:48;;;;;;;;;;;;;;;20.68;46.96;101223.91;7253587;19;155801;-56
2023/02/23 01:16:16;;;;;;;;;;;;;;;20.67;47.33;101228.69;7253715;19;153189;-56
2023/02/23 01:18:44;;;;;;;;;;;;;;;20.67;47.25;101227.88;7252942;19;154077;-56
2023/02/23 01:21:14;;;;;;;;;;;;;;;20.68;47.19;101227.56;7254879;19;153962;-55
2023/02/23 01:23:41;;;;;;;;;;;;;;;20.68;47.05;101229.53;7250787;19;154254;-56
2023/02/23 01:26:12;;;;;;;;;;;;;;;20.67;47.11;101234.31;7250134;19;152380;-56
2023/02/23 01:28:39;;;;;;;;;;;;;;;20.62;47.67;101228.78;7255718;19;153395;-55
2023/02/23 01:31:07;;;;;;;;;;;;;;;20.63;47.54;101238.03;7257539;19;154094;-56
2023/02/23 01:33:35;;;;;;;;;;;;;;;20.64;47.67;101239.69;7252929;19;154369;-56
2023/02/23 01:36:02;;;;;;;;;;;;;;;20.64;47.60;101236.88;7251113;19;152708;-56
2023/02/23 01:38:29;;;;;;;;;;;;;;;20.58;48.08;101236.13;7251546;19;153326;-56
2023/02/23 01:40:55;;;;;;;;;;;;;;;20.57;47.71;101231.66;7252932;19;156669;-56
2023/02/23 01:45:54;;;;;;;;;;;;;;;20.50;48.30;101244.38;7242144;19;154060;-56
2023/02/23 01:48:23;;;;;;;;;;;;;;;20.47;47.94;101245.00;7254685;19;153111;-56
2023/02/23 01:50:53;;;;;;;;;;;;;;;20.41;48.45;101242.25;7253573;19;152815;-56
2023/02/23 01:53:21;;;;;;;;;;;;;;;20.41;48.67;101247.84;7256271;19;154273;-56
2023/02/23 01:55:49;;;;;;;;;;;;;;;20.39;48.82;101240.91;7252332;19;154534;-56
2023/02/23 01:58:18;;;;;;;;;;;;;;;20.37;48.97;101246.78;7251780;19;156018;-56
2023/02/23 02:00:48;;;;;;;;;;;;;;;20.36;48.80;101241.47;7250780;19;153896;-56
2023/02/23 02:03:22;;;;;;;;;;;;;;;20.32;48.67;101244.06;7253611;19;153840;-56
2023/02/23 02:05:51;;;;;;;;;;;;;;;20.30;48.69;101243.53;7250107;19;152721;-56
2023/02/23 02:08:18;;;;;;;;;;;;;;;20.29;49.07;101246.59;7249237;19;153434;-56
2023/02/23 02:10:46;;;;;;;;;;;;;;;20.26;48.79;101244.41;7253983;19;153400;-56
2023/02/23 02:13:17;;;;;;;;;;;;;;;20.23;48.72;101240.19;7249629;19;154556;-55
2023/02/23 02:15:52;;;;;;;;;;;;;;;20.23;48.81;101251.41;7258495;19;152691;-56
2023/02/23 02:18:22;;;;;;;;;;;;;;;20.21;48.65;101247.25;7251813;19;154154;-56
2023/02/23 02:21:03;;;;;;;;;;;;;;;20.20;48.76;101251.19;7250973;19;153609;-56
2023/02/23 02:23:35;;;;;;;;;;;;;;;20.17;49.16;101241.38;7247998;19;153912;-56
2023/02/23 02:26:08;;;;;;;;;;;;;;;20.16;49.10;101247.31;7252718;19;155869;-55
2023/02/23 02:28:37;;;;;;;;;;;;;;;20.16;49.13;101244.50;7250534;19;154557;-55
2023/02/23 02:31:07;;;;;;;;;;;;;;;20.14;49.01;101255.19;7249051;19;154144;-55
2023/02/23 02:33:36;;;;;;;;;;;;;;;20.13;49.24;101251.53;7250928;19;152670;-55
2023/02/23 02:36:06;;;;;;;;;;;;;;;20.10;49.07;101251.31;7260765;19;153797;-56
2023/02/23 02:38:34;;;;;;;;;;;;;;;20.09;48.95;101256.06;7247116;19;153423;-55
2023/02/23 02:41:07;;;;;;;;;;;;;;;20.05;49.15;101245.75;7253172;19;153554;-55
2023/02/23 02:43:41;;;;;;;;;;;;;;;20.04;49.57;101246.88;7257370;19;154206;-56
2023/02/23 02:46:12;;;;;;;;;;;;;;;20.03;49.04;101242.44;7260888;19;153434;-55
2023/02/23 02:48:41;;;;;;;;;;;;;;;20.01;49.14;101241.88;7264914;19;153967;-56
2023/02/23 02:51:17;;;;;;;;;;;;;;;20.02;49.23;101237.94;7257032;19;153881;-56
2023/02/23 02:53:50;;;;;;;;;;;;;;;19.97;49.45;101231.25;7254251;19;153396;-56
2023/02/23 02:56:18;;;;;;;;;;;;;;;19.95;49.32;101235.47;7256670;19;153649;-56
2023/02/23 02:58:48;;;;;;;;;;;;;;;19.94;49.31;101237.44;7262888;19;152964;-56
2023/02/23 04:17:41;;;;;;;;;;;;;;;19.49;50.16;101280.78;7263767;19;153820;-56
2023/02/23 04:20:10;;;;;;;;;;;;;;;19.48;49.87;101267.94;7268320;19;155598;-56
2023/02/23 04:22:37;;;;;;;;;;;;;;;19.46;50.04;101275.78;7257680;19;154850;-56
2023/02/23 04:25:05;;;;;;;;;;;;;;;19.45;49.82;101278.88;7260201;19;154025;-56
2023/02/23 04:27:32;;;;;;;;;;;;;;;19.44;50.23;101277.22;7252538;19;154069;-56
2023/02/23 04:29:58;;;;;;;;;;;;;;;19.44;49.98;101271.59;7261739;19;154427;-56
2023/02/23 04:32:25;;;;;;;;;;;;;;;19.44;50.12;101269.63;7253484;19;152719;-56
2023/02/23 04:34:52;;;;;;;;;;;;;;;19.42;50.04;101279.44;7255620;19;154332;-56
2023/02/23 04:37:19;;;;;;;;;;;;;;;19.41;50.12;101274.94;7255672;19;154015;-56
2023/02/23 04:39:48;;;;;;;;;;;;;;;19.40;50.21;101285.31;7257553;19;153127;-56
2023/02/23 04:42:16;;;;;;;;;;;;;;;19.38;49.96;101287.59;7254115;19;155379;-57
2023/02/23 04:44:44;;;;;;;;;;;;;;;19.36;49.97;101287.03;7251564;19;153525;-56
2023/02/23 04:47:11;;;;;;;;;;;;;;;19.36;50.19;101289.00;7252255;19;153583;-57
2023/02/23 04:49:37;;;;;;;;;;;;;;;19.35;50.21;101290.16;7258987;19;153419;-56
2023/02/23 04:52:04;;;;;;;;;;;;;;;19.33;50.27;101290.44;7254718;19;155289;-56
2023/02/23 04:54:31;;;;;;;;;;;;;;;19.31;50.28;101286.22;7253926;19;153484;-56
2023/02/23 04:56:58;;;;;;;;;;;;;;;19.29;50.11;101289.34;7254261;19;153695;-56
2023/02/23 04:59:25;;;;;;;;;;;;;;;19.28;50.18;101295.22;7252698;19;153526;-56
2023/02/23 05:01:52;;;;;;;;;;;;;;;19.29;50.43;101288.50;7254193;19;155393;-56
2023/02/23 05:04:19;;;;;;;;;;;;;;;19.26;50.17;101291.91;7255679;19;152216;-56
2023/02/23 05:06:46;;;;;;;;;;;;;;;19.25;50.08;101284.63;7255345;19;153761;-56
2023/02/23 05:09:13;;;;;;;;;;;;;;;19.23;50.39;101289.66;7255981;19;152337;-57
2023/02/23 05:11:40;;;;;;;;;;;;;;;19.24;50.29;101296.94;7260418;19;153371;-56
2023/02/23 05:14:08;;;;;;;;;;;;;;;19.24;50.31;101291.34;7248399;19;152298;-56
2023/02/23 05:16:35;;;;;;;;;;;;;;;19.21;50.08;101300.34;7251407;19;153688;-56
2023/02/23 05:19:02;;;;;;;;;;;;;;;19.19;50.22;101300.63;7253783;19;153446;-56
2023/02/23 05:21:29;;;;;;;;;;;;;;;19.17;50.18;101305.66;7252277;19;153759;-56
2023/02/23 05:23:56;;;;;;;;;;;;;;;19.18;50.44;101317.69;7252446;19;152720;-56
2023/02/23 05:26:23;;;;;;;;;;;;;;;19.16;50.25;101318.00;7256241;19;153538;-56
2023/02/23 05:28:50;;;;;;;;;;;;;;;19.16;50.05;101322.78;7251058;19;154479;-56
2023/02/23 05:31:17;;;;;;;;;;;;;;;19.15;50.47;101315.50;7253763;19;154710;-56
2023/02/23 05:33:45;;;;;;;;;;;;;;;19.14;50.39;101320.25;7260525;19;153763;-56
2023/02/23 05:36:12;;;;;;;;;;;;;;;19.12;50.33;101316.91;7252539;19;153369;-56
2023/02/23 05:38:39;;;;;;;;;;;;;;;19.11;50.17;101315.25;7253644;19;153854;-56
2023/02/23 05:41:07;;;;;;;;;;;;;;;19.12;50.51;101310.47;7252879;19;154951;-56
2023/02/23 05:43:34;;;;;;;;;;;;;;;19.10;50.64;101311.59;7250730;19;155001;-56
2023/02/23 05:46:04;;;;;;;;;;;;;;;19.08;50.15;101315.81;7251732;19;154380;-57
2023/02/23 05:48:32;;;;;;;;;;;;;;;19.08;50.48;101321.41;7252242;19;155005;-56
2023/02/23 05:51:00;;;;;;;;;;;;;;;19.07;50.12;101325.34;7255708;19;152237;-56
2023/02/23 05:53:27;;;;;;;;;;;;;;;19.09;50.62;101320.28;7254622;19;154596;-57
2023/02/23 05:55:54;;;;;;;;;;;;;;;19.17;50.12;101319.66;7260745;19;154402;-57
2023/02/23 05:58:21;;;;;;;;;;;;;;;19.22;50.46;101324.41;7252008;19;153653;-56
2023/02/23 06:00:47;;;;;;;;;;;;;;;19.25;50.69;101335.03;7254216;19;153717;-56
2023/02/23 06:03:14;;;;;;;;;;;;;;;19.30;50.78;101333.03;7254273;19;154239;-56
2023/02/23 06:05:42;;;;;;;;;;;;;;;19.37;50.90;101341.94;7252866;19;154340;-56
2023/02/23 06:08:08;;;;;;;;;;;;;;;19.44;50.83;101345.28;7251121;19;153284;-54
2023/02/23 06:10:35;;;;;;;;;;;;;;;19.50;50.83;101348.88;7253412;19;151923;-55
2023/02/23 06:13:02;;;;;;;;;;;;;;;19.59;51.37;101351.91;7246688;19;154385;-55
2023/02/23 06:15:30;;;;;;;;;;;;;;;19.64;50.96;101363.06;7252832;19;153567;-54
2023/02/23 06:17:57;;;;;;;;;;;;;;;19.69;50.80;101368.66;7258367;19;153962;-55
2023/02/23 06:20:23;;;;;;;;;;;;;;;19.74;50.42;101375.06;7252624;19;152099;-55
2023/02/23 06:22:50;;;;;;;;;;;;;;;19.79;50.53;101372.22;7253555;19;153669;-56
2023/02/23 06:25:17;;;;;;;;;;;;;;;19.84;50.93;101376.94;7253773;19;153422;-55
2023/02/23 06:27:44;;;;;;;;;;;;;;;19.89;50.79;101382.50;7248606;19;154183;-55
2023/02/23 06:30:11;;;;;;;;;;;;;;;19.95;50.90;101376.53;7253706;19;153586;-55
2023/02/23 06:32:38;;;;;;;;;;;;;;;20.02;50.74;101386.59;7250564;19;154243;-55
2023/02/23 06:35:06;;;;;;;;;;;;;;;20.07;50.29;101389.38;7249773;19;154235;-54
2023/02/23 06:37:33;;;;;;;;;;;;;;;20.12;50.54;101392.97;7259444;19;154099;-55
2023/02/23 06:40:01;;;;;;;;;;;;;;;20.18;50.57;101391.75;7251426;19;152583;-54
2023/02/23 06:42:28;;;;;;;;;;;;;;;20.23;50.25;101394.53;7248508;19;153138;-55
2023/02/23 06:44:54;;;;;;;;;;;;;;;20.30;50.12;101403.47;7252231;19;154349;-55
2023/02/23 06:47:21;;;;;;;;;;;;;;;20.35;49.76;101400.59;7251665;19;154749;-55
2023/02/23 06:49:48;;;;;;;;;;;;;;;20.41;49.54;101407.84;7255619;19;153659;-56
2023/02/23 06:52:15;;;;;;;;;;;;;;;20.45;49.85;101422.09;7253892;19;153540;-55
2023/02/23 06:54:42;;;;;;;;;;;;;;;20.50;49.43;101422.06;7250253;19;153709;-54
2023/02/23 06:57:09;;;;;;;;;;;;;;;20.56;49.45;101429.31;7249501;19;152495;-55
2023/02/23 06:59:36;;;;;;;;;;;;;;;20.62;49.33;101419.72;7255821;19;153538;-55
2023/02/23 07:02:04;;;;;;;;;;;;;;;20.67;48.96;101422.44;7251960;19;154235;-55
2023/02/23 07:04:32;;;;;;;;;;;;;;;20.72;48.87;101424.34;7250529;19;152944;-55
2023/02/23 07:06:59;;;;;;;;;;;;;;;20.76;48.78;101425.41;7247402;19;153993;-55
2023/02/23 07:09:25;;;;;;;;;;;;;;;20.81;48.47;101431.81;7252035;19;154544;-56
2023/02/23 07:11:55;;;;;;;;;;;;;;;20.85;48.68;101429.25;7253166;19;155224;-55
2023/02/23 07:14:22;;;;;;;;;;;;;;;20.89;48.42;101435.13;7245095;19;152975;-55
2023/02/23 07:16:53;;;;;;;;;;;;;;;20.94;48.74;101429.44;7251104;19;153824;-55
2023/02/23 07:19:20;;;;;;;;;;;;;;;20.96;48.83;101430.81;7251544;19;154558;-54
2023/02/23 07:21:47;;;;;;;;;;;;;;;21.02;48.32;101428.78;7256489;19;153987;-54
2023/02/23 07:24:13;;;;;;;;;;;;;;;21.05;48.18;101436.59;7250522;19;153292;-55
2023/02/23 07:26:45;;;;;;;;;;;;;;;21.07;47.88;101442.75;7249911;19;152747;-55
2023/02/23 07:29:12;;;;;;;;;;;;;;;21.10;47.70;101442.16;7247909;19;154279;-55
2023/02/23 07:31:39;;;;;;;;;;;;;;;21.11;47.72;101455.91;7256295;19;153464;-55
2023/02/23 07:34:07;;;;;;;;;;;;;;;20.73;42.41;101457.75;7255060;19;155475;-55
2023/02/23 07:36:35;;;;;;;;;;;;;;;20.67;42.47;101463.75;7255830;19;153599;-54
2023/02/23 07:39:03;;;;;;;;;;;;;;;20.71;43.05;101464.81;7254284;19;155279;-55
2023/02/23 07:41:30;;;;;;;;;;;;;;;20.75;43.03;101466.72;7257875;19;154322;-55
2023/02/23 07:43:58;;;;;;;;;;;;;;;20.76;43.36;101474.00;7262213;19;153995;-55
2023/02/23 07:46:25;;;;;;;;;;;;;;;20.80;43.74;101477.88;7254557;19;153327;-55
2023/02/23 07:48:52;;;;;;;;;;;;;;;20.81;43.85;101478.72;7254754;19;152371;-55
2023/02/23 07:51:19;;;;;;;;;;;;;;;20.83;43.66;101487.69;7259644;19;153902;-55
2023/02/23 07:53:47;;;;;;;;;;;;;;;20.82;43.61;101484.06;7256338;19;154329;-55
2023/02/23 07:56:14;;;;;;;;;;;;;;;20.81;44.14;101493.59;7257555;19;152556;-55
2023/02/23 07:58:42;;;;;;;;;;;;;;;20.80;44.18;101493.91;7252592;19;153486;-55
2023/02/23 08:01:10;;;;;;;;;;;;;;;20.80;43.96;101491.13;7260062;19;154073;-55
2023/02/23 08:03:38;;;;;;;;;;;;;;;20.77;43.85;101492.53;7255874;19;153550;-55
2023/02/23 08:06:05;;;;;;;;;;;;;;;20.76;43.88;101502.06;7264719;19;155478;-55
2023/02/23 08:08:34;;;;;;;;;;;;;;;20.74;44.04;101498.75;7254375;19;152000;-55
2023/02/23 08:11:02;;;;;;;;;;;;;;;20.76;44.26;101495.63;7258271;19;153198;-55
2023/02/23 08:13:30;;;;;;;;;;;;;;;20.78;44.14;101508.25;7249141;19;156358;-55
2023/02/23 08:15:57;;;;;;;;;;;;;;;20.79;44.56;101515.56;7255358;19;153908;-56
2023/02/23 08:18:25;;;;;;;;;;;;;;;20.80;44.48;101511.59;7255888;19;152959;-56
2023/02/23 08:20:55;;;;;;;;;;;;;;;20.78;44.10;101511.06;7255675;19;153832;-56
2023/02/23 08:23:22;;;;;;;;;;;;;;;20.78;44.33;101519.50;7252797;19;154051;-56
2023/02/23 08:25:49;;;;;;;;;;;;;;;20.79;44.33;101523.13;7258496;19;152673;-56
2023/02/23 08:28:16;;;;;;;;;;;;;;;20.84;44.35;101523.09;7257127;19;155837;-58
2023/02/23 08:30:43;;;;;;;;;;;;;;;20.85;44.73;101519.13;7258367;19;152701;-56
2023/02/23 08:33:10;;;;;;;;;;;;;;;20.81;44.44;101524.50;7254170;19;153567;-56
2023/02/23 08:35:37;;;;;;;;;;;;;;;20.78;44.29;101518.66;7255200;19;152791;-56
2023/02/23 08:38:04;;;;;;;;;;;;;;;20.80;44.33;101514.38;7246841;19;153779;-56
2023/02/23 08:40:31;;;;;;;;;;;;;;;20.76;44.49;101521.75;7255983;19;153623;-56
2023/02/23 08:42:58;;;;;;;;;;;;;;;20.77;44.32;101514.16;7253636;19;154314;-56
2023/02/23 08:45:28;;;;;;;;;;;;;;;20.77;44.25;101525.38;7258422;19;153984;-56
2023/02/23 08:47:55;;;;;;;;;;;;;;;20.81;44.22;101515.22;7262309;19;153455;-56
2023/02/23 08:50:22;;;;;;;;;;;;;;;20.86;43.86;101518.84;7255947;19;153408;-56
2023/02/23 08:52:52;;;;;;;;;;;;;;;20.88;43.84;101521.34;7254093;19;155867;-56
2023/02/23 08:55:20;;;;;;;;;;;;;;;20.94;43.95;101524.94;7257419;19;154262;-56
2023/02/23 08:57:47;;;;;;;;;;;;;;;20.97;43.91;101513.97;7249131;19;153974;-56
2023/02/23 09:00:15;;;;;;;;;;;;;;;21.03;43.93;101517.56;7257076;19;154271;-56
2023/02/23 09:02:44;;;;;;;;;;;;;;;21.05;44.14;101520.88;7257214;19;153372;-56
2023/02/23 09:05:11;;;;;;;;;;;;;;;21.08;43.43;101526.72;7255448;19;154803;-56
2023/02/23 09:07:39;;;;;;;;;;;;;;;21.10;43.51;101534.88;7253249;19;154171;-56
2023/02/23 09:10:06;;;;;;;;;;;;;;;21.14;43.39;101524.75;7267712;19;153867;-56
2023/02/23 09:12:33;;;;;;;;;;;;;;;21.16;43.34;101537.38;7253854;19;153169;-56
2023/02/23 09:15:01;;;;;;;;;;;;;;;21.18;43.10;101548.31;7254388;19;152490;-56
2023/02/23 09:17:28;;;;;;;;;;;;;;;21.18;43.47;101546.34;7254015;19;155255;-56
2023/02/23 09:19:55;;;;;;;;;;;;;;;21.18;43.29;101551.94;7257389;19;154327;-56
2023/02/23 09:22:22;;;;;;;;;;;;;;;21.19;43.18;101550.81;7254645;19;153754;-56
2023/02/23 09:24:49;;;;;;;;;;;;;;;21.20;43.15;101551.66;7257272;19;153948;-56
2023/02/23 09:27:16;;;;;;;;;;;;;;;21.22;42.67;101552.19;7252285;19;152177;-56
2023/02/23 09:29:43;;;;;;;;;;;;;;;21.21;42.53;101553.34;7255069;19;153787;-56
2023/02/23 09:32:10;;;;;;;;;;;;;;;21.17;42.75;101561.50;7260610;19;152913;-57
2023/02/23 09:34:37;;;;;;;;;;;;;;;21.16;43.12;101559.88;7254745;19;155124;-56
2023/02/23 09:37:05;;;;;;;;;;;;;;;21.14;42.87;101569.72;7258696;19;153941;-56
2023/02/23 09:39:32;;;;;;;;;;;;;;;21.13;43.02;101573.63;7256316;19;154100;-56
2023/02/23 09:42:07;;;;;;;;;;;;;;;21.12;42.81;101569.16;7259997;19;153544;-56
2023/02/23 09:44:37;;;;;;;;;;;;;;;21.09;43.02;101578.16;7252672;19;152946;-56
2023/02/23 09:47:05;;;;;;;;;;;;;;;21.09;42.96;101578.16;7258230;19;154439;-56
2023/02/23 09:49:36;;;;;;;;;;;;;;;21.07;42.54;101578.47;7256739;19;153217;-57
2023/02/23 09:52:08;;;;;;;;;;;;;;;21.06;42.97;101578.75;7256617;19;153618;-58
2023/02/23 09:54:35;;;;;;;;;;;;;;;21.05;42.61;101577.06;7263766;19;153993;-57
2023/02/23 09:57:05;;;;;;;;;;;;;;;21.05;42.61;101585.50;7253922;19;153188;-57
2023/02/23 09:59:33;;;;;;;;;;;;;;;21.04;42.32;101595.91;7249933;19;154635;-57
2023/02/23 10:02:01;;;;;;;;;;;;;;;21.02;42.55;101600.16;7254106;19;153015;-57
2023/02/23 10:04:29;;;;;;;;;;;;;;;20.99;42.28;101595.09;7254719;19;152302;-57
2023/02/23 10:06:59;;;;;;;;;;;;;;;21.02;42.25;101600.16;7253936;19;154675;-57
2023/02/23 10:09:37;;;;;;;;;;;;;;;21.00;42.78;101592.00;7254980;19;152642;-57
2023/02/23 10:12:09;;;;;;;;;;;;;;;21.01;42.43;101595.66;7257285;19;153548;-57
2023/02/23 10:14:39;;;;;;;;;;;;;;;21.02;42.53;101600.16;7249034;19;153592;-57
2023/02/23 10:17:10;;;;;;;;;;;;;;;21.02;42.44;101602.97;7263126;19;153413;-57
2023/02/23 10:19:39;;;;;;;;;;;;;;;21.00;42.56;101605.22;7254604;19;154954;-57
2023/02/23 10:22:08;;;;;;;;;;;;;;;20.96;42.43;101615.38;7256317;19;153782;-57
2023/02/23 10:24:38;;;;;;;;;;;;;;;20.95;42.39;101608.06;7254391;19;155340;-57
2023/02/23 10:27:09;;;;;;;;;;;;;;;20.95;42.65;101613.69;7253991;19;154228;-57
2023/02/23 10:29:37;;;;;;;;;;;;;;;20.92;42.30;101615.13;7252661;19;152526;-57
2023/02/23 10:32:06;;;;;;;;;;;;;;;20.89;42.45;101624.16;7255576;19;153006;-57
2023/02/23 10:34:35;;;;;;;;;;;;;;;20.90;42.86;101628.63;7249486;19;153439;-57
2023/02/23 10:37:04;;;;;;;;;;;;;;;20.91;42.62;101624.69;7250509;19;152232;-57
2023/02/23 10:39:33;;;;;;;;;;;;;;;20.88;42.75;101630.91;7256976;19;152751;-57
2023/02/23 10:42:04;;;;;;;;;;;;;;;20.87;42.57;101620.78;7252188;19;152075;-57
2023/02/23 10:44:31;;;;;;;;;;;;;;;20.88;42.55;101618.81;7250875;19;153740;-57
2023/02/23 10:47:01;;;;;;;;;;;;;;;20.86;42.50;101608.72;7250742;19;154243;-57
2023/02/23 10:49:38;;;;;;;;;;;;;;;20.82;42.66;101621.69;7251384;19;152836;-57
2023/02/23 10:52:08;;;;;;;;;;;;;;;20.80;42.58;101626.72;7251702;19;152472;-57
2023/02/23 10:54:35;;;;;;;;;;;;;;;20.79;42.88;101616.66;7248873;19;154065;-57
2023/02/23 10:57:03;;;;;;;;;;;;;;;20.75;42.49;101621.19;7254545;19;154587;-57
2023/02/23 10:59:31;;;;;;;;;;;;;;;20.72;42.76;101612.50;7257933;19;152765;-57
2023/02/23 11:01:58;;;;;;;;;;;;;;;20.68;42.76;101617.00;7256103;19;152824;-57
2023/02/23 11:04:30;;;;;;;;;;;;;;;20.69;42.84;101633.59;7261086;19;153505;-57
2023/02/23 11:07:00;;;;;;;;;;;;;;;20.64;42.57;101638.38;7259520;19;153550;-57
2023/02/23 11:09:29;;;;;;;;;;;;;;;20.60;42.52;101642.91;7262954;19;153063;-57
2023/02/23 11:12:20;;;;;;;;;;;;;;;20.54;42.69;101644.06;7259487;19;152785;-57
2023/02/23 11:14:49;;;;;;;;;;;;;;;20.52;42.77;101644.38;7254966;19;154646;-57
2023/02/23 11:17:19;;;;;;;;;;;;;;;20.49;42.57;101642.13;7260551;19;153447;-57
2023/02/23 11:19:46;;;;;;;;;;;;;;;20.52;42.56;101649.16;7264202;19;153346;-57
2023/02/23 11:22:21;;;;;;;;;;;;;;;20.49;42.60;101649.75;7268128;19;154757;-57
2023/02/23 11:24:48;;;;;;;;;;;;;;;20.46;43.08;101651.16;7261661;19;153341;-57
2023/02/23 11:27:19;;;;;;;;;;;;;;;20.45;43.08;101645.81;7254123;19;153623;-57
2023/02/23 11:29:49;;;;;;;;;;;;;;;20.41;43.33;101662.41;7255921;19;153932;-57
2023/02/23 11:32:19;;;;;;;;;;;;;;;20.39;43.32;101659.06;7256178;19;154494;-57
2023/02/23 11:34:48;;;;;;;;;;;;;;;20.38;43.00;101655.44;7255457;19;152284;-57
2023/02/23 11:37:16;;;;;;;;;;;;;;;20.34;43.24;101668.38;7255437;19;152066;-57
2023/02/23 11:39:46;;;;;;;;;;;;;;;20.32;42.91;101664.16;7261416;19;154283;-57
2023/02/23 11:42:18;;;;;;;;;;;;;;;20.28;42.91;101661.06;7255805;19;154810;-57
2023/02/23 11:44:48;;;;;;;;;;;;;;;20.26;42.88;101665.31;7263647;19;153027;-57
2023/02/23 11:47:17;;;;;;;;;;;;;;;20.27;43.30;101664.16;7256300;19;153503;-57
2023/02/23 11:49:47;;;;;;;;;;;;;;;20.27;43.30;101655.72;7258803;19;153741;-57
2023/02/23 11:52:17;;;;;;;;;;;;;;;20.29;42.96;101659.09;7257739;19;153493;-57
2023/02/23 11:54:49;;;;;;;;;;;;;;;20.28;43.26;101637.78;7257156;19;153987;-57
2023/02/23 11:57:20;;;;;;;;;;;;;;;20.27;43.00;101641.69;7259769;19;153910;-57
2023/02/23 11:59:48;;;;;;;;;;;;;;;20.21;42.89;101645.69;7256764;19;153935;-57
2023/02/23 12:02:19;;;;;;;;;;;;;;;20.20;43.30;101647.66;7256660;19;155027;-58
2023/02/23 12:04:46;;;;;;;;;;;;;;;20.16;43.04;101649.34;7260183;19;153762;-57
2023/02/23 12:07:16;;;;;;;;;;;;;;;20.13;43.01;101654.69;7267558;19;153240;-57
2023/02/23 12:09:44;;;;;;;;;;;;;;;20.11;43.12;101654.16;7260674;19;153832;-57
2023/02/23 12:12:15;;;;;;;;;;;;;;;20.06;42.99;101652.22;7258060;19;153441;-57
2023/02/23 12:14:48;;;;;;;;;;;;;;;20.06;43.08;101662.59;7251193;19;154758;-57
2023/02/23 12:17:19;;;;;;;;;;;;;;;20.03;43.49;101666.81;7257298;19;152410;-57
2023/02/23 12:19:48;;;;;;;;;;;;;;;20.03;43.32;101666.81;7259448;19;153075;-57
2023/02/23 12:22:18;;;;;;;;;;;;;;;20.01;43.47;101669.06;7254808;19;152486;-57
2023/02/23 12:24:47;;;;;;;;;;;;;;;19.99;43.33;101665.69;7258517;19;151772;-57
2023/02/23 12:27:17;;;;;;;;;;;;;;;19.95;43.30;101659.81;7255252;19;154294;-57
2023/02/23 12:29:47;;;;;;;;;;;;;;;19.93;43.67;101650.03;7260861;19;155815;-57
2023/02/23 12:32:17;;;;;;;;;;;;;;;19.89;43.60;101661.00;7258749;19;154055;-57
2023/02/23 12:34:48;;;;;;;;;;;;;;;19.89;43.50;101660.16;7257634;19;154025;-57
2023/02/23 12:37:18;;;;;;;;;;;;;;;19.86;43.34;101666.31;7256170;19;153536;-57
2023/02/23 12:39:48;;;;;;;;;;;;;;;19.86;43.63;101653.13;7258126;19;155040;-57
2023/02/23 12:42:21;;;;;;;;;;;;;;;19.82;43.79;101654.00;7256315;19;154210;-57
2023/02/23 12:44:52;;;;;;;;;;;;;;;19.80;43.41;101650.66;7254415;19;154464;-57
2023/02/23 12:47:23;;;;;;;;;;;;;;;19.77;43.59;101651.19;7257268;19;153333;-57
2023/02/23 12:49:54;;;;;;;;;;;;;;;19.76;43.57;101657.97;7256606;19;154003;-57
2023/02/23 12:52:24;;;;;;;;;;;;;;;19.74;43.89;101660.19;7263042;19;153964;-57
2023/02/23 12:54:53;;;;;;;;;;;;;;;19.70;44.07;101653.47;7259594;19;155215;-57
2023/02/23 12:57:23;;;;;;;;;;;;;;;19.73;43.71;101662.16;7257421;19;152572;-57
2023/02/23 12:59:53;;;;;;;;;;;;;;;19.73;43.97;101658.50;7258546;19;154660;-57
2023/02/23 13:02:26;;;;;;;;;;;;;;;19.70;43.99;101657.13;7257162;19;154107;-57
2023/02/23 13:04:56;;;;;;;;;;;;;;;19.67;43.55;101654.88;7254346;19;152023;-57
2023/02/23 13:07:26;;;;;;;;;;;;;;;19.66;43.54;101652.38;7256111;19;153758;-57
2023/02/23 13:10:03;;;;;;;;;;;;;;;19.65;43.64;101657.13;7252979;19;154741;-57
2023/02/23 13:12:35;;;;;;;;;;;;;;;19.63;44.08;101664.13;7256206;19;152465;-57
2023/02/23 13:15:05;;;;;;;;;;;;;;;19.58;43.83;101665.00;7252274;19;153560;-57
2023/02/23 13:17:34;;;;;;;;;;;;;;;19.59;44.11;101655.47;7254489;19;153471;-57
2023/02/23 13:20:05;;;;;;;;;;;;;;;19.56;43.82;101656.06;7272361;19;153559;-57
2023/02/23 13:22:33;;;;;;;;;;;;;;;19.57;44.23;101651.28;7280770;19;153159;-57
2023/02/23 13:25:01;;;;;;;;;;;;;;;19.54;44.00;101655.47;7266167;19;152713;-57
2023/02/23 13:27:33;;;;;;;;;;;;;;;19.52;44.34;101655.78;7252354;19;153844;-57
2023/02/23 13:30:01;;;;;;;;;;;;;;;19.51;44.36;101650.44;7253064;19;154227;-57
2023/02/23 13:32:30;;;;;;;;;;;;;;;19.50;44.12;101654.38;7256399;19;153030;-57
2023/02/23 13:35:00;;;;;;;;;;;;;;;19.50;44.16;101648.75;7264466;19;154490;-57
2023/02/23 13:37:33;;;;;;;;;;;;;;;19.46;44.40;101645.69;7260894;19;153686;-57
2023/02/23 13:40:01;;;;;;;;;;;;;;;19.47;44.07;101652.16;7226615;19;153922;-57
2023/02/23 13:42:29;;;;;;;;;;;;;;;19.45;44.14;101655.22;7241293;19;154536;-57
2023/02/23 13:44:58;;;;;;;;;;;;;;;19.49;43.98;101639.50;7255397;19;153248;-58
2023/02/23 13:47:32;;;;;;;;;;;;;;;19.59;43.71;101644.25;7256119;19;153881;-57
2023/02/23 13:50:01;;;;;;;;;;;;;;;19.64;43.72;101646.19;7250771;19;153436;-57
2023/02/23 13:52:32;;;;;;;;;;;;;;;19.68;43.61;101645.34;7250979;19;153385;-57
2023/02/23 13:57:31;;;;;;;;;;;;;;;19.76;43.40;101657.97;7256006;19;153208;-57
2023/02/23 13:59:58;;;;;;;;;;;;;;;19.83;43.45;101661.28;7251333;19;155238;-57